Terminal Aerodrome Forecast
Issued by NWS Wichita, KS

Home | Current Version | Previous Version | Graphics & Text | Print | Product List | Glossary On
Versions: 1 2 3 4 5 6 7 8 9 10 11 12 13 14
976
FTUS43 KICT 082328
TAFICT
TAF
KICT 082328Z 0900/0924 33023G30KT P6SM FEW200
     FM090100 32016G24KT P6SM FEW250
     FM090600 32014KT P6SM FEW250
     FM091600 34016G23KT P6SM SCT250=

USA.gov is the U.S. government's official web portal to all federal, state and local government web resources and services.